sensor_id;sensor_type;location;lat;lon;timestamp;P1;durP1;ratioP1;P2;durP2;ratioP2
66559;SDS011;53413;49.878;8.142;2023-05-16T00:01:12;43.07;;;17.23;;
66559;SDS011;53413;49.878;8.142;2023-05-16T00:03:37;42.38;;;17.38;;
66559;SDS011;53413;49.878;8.142;2023-05-16T00:06:03;42.45;;;17.88;;
66559;SDS011;53413;49.878;8.142;2023-05-16T00:08:29;39.80;;;16.77;;
66559;SDS011;53413;49.878;8.142;2023-05-16T00:10:54;39.47;;;16.02;;
66559;SDS011;53413;49.878;8.142;2023-05-16T00:13:20;42.13;;;16.70;;
66559;SDS011;53413;49.878;8.142;2023-05-16T00:15:49;38.70;;;15.90;;
66559;SDS011;53413;49.878;8.142;2023-05-16T00:18:15;42.67;;;16.15;;
66559;SDS011;53413;49.878;8.142;2023-05-16T00:20:41;38.53;;;15.83;;
66559;SDS011;53413;49.878;8.142;2023-05-16T00:23:06;36.17;;;15.50;;
66559;SDS011;53413;49.878;8.142;2023-05-16T00:25:32;38.75;;;15.98;;
66559;SDS011;53413;49.878;8.142;2023-05-16T00:27:57;38.80;;;15.03;;
66559;SDS011;53413;49.878;8.142;2023-05-16T00:30:22;38.23;;;15.23;;
66559;SDS011;53413;49.878;8.142;2023-05-16T00:32:48;33.57;;;14.40;;
66559;SDS011;53413;49.878;8.142;2023-05-16T00:35:13;33.73;;;14.53;;
66559;SDS011;53413;49.878;8.142;2023-05-16T00:37:38;35.47;;;14.53;;
66559;SDS011;53413;49.878;8.142;2023-05-16T00:40:04;31.48;;;14.13;;
66559;SDS011;53413;49.878;8.142;2023-05-16T00:42:30;35.10;;;14.15;;
66559;SDS011;53413;49.878;8.142;2023-05-16T00:44:56;33.20;;;14.43;;
66559;SDS011;53413;49.878;8.142;2023-05-16T00:47:21;33.15;;;14.82;;
66559;SDS011;53413;49.878;8.142;2023-05-16T00:49:47;33.20;;;13.87;;
66559;SDS011;53413;49.878;8.142;2023-05-16T00:52:12;31.38;;;13.70;;
66559;SDS011;53413;49.878;8.142;2023-05-16T00:54:38;32.33;;;13.13;;
66559;SDS011;53413;49.878;8.142;2023-05-16T00:57:03;33.13;;;13.03;;
66559;SDS011;53413;49.878;8.142;2023-05-16T00:59:30;35.22;;;12.90;;
66559;SDS011;53413;49.878;8.142;2023-05-16T01:01:57;33.05;;;12.85;;
66559;SDS011;53413;49.878;8.142;2023-05-16T01:04:22;37.43;;;13.47;;
66559;SDS011;53413;49.878;8.142;2023-05-16T01:06:48;32.47;;;13.00;;
66559;SDS011;53413;49.878;8.142;2023-05-16T01:09:14;30.63;;;12.63;;
66559;SDS011;53413;49.878;8.142;2023-05-16T01:14:13;32.53;;;12.48;;
66559;SDS011;53413;49.878;8.142;2023-05-16T01:22:19;30.83;;;11.18;;
66559;SDS011;53413;49.878;8.142;2023-05-16T01:27:41;27.98;;;11.77;;
66559;SDS011;53413;49.878;8.142;2023-05-16T01:30:16;30.23;;;12.10;;
66559;SDS011;53413;49.878;8.142;2023-05-16T01:32:42;28.95;;;11.57;;
66559;SDS011;53413;49.878;8.142;2023-05-16T01:35:08;31.40;;;11.63;;
66559;SDS011;53413;49.878;8.142;2023-05-16T01:37:53;27.33;;;11.27;;
66559;SDS011;53413;49.878;8.142;2023-05-16T01:40:52;28.13;;;10.85;;
66559;SDS011;53413;49.878;8.142;2023-05-16T01:46:26;26.35;;;10.48;;
66559;SDS011;53413;49.878;8.142;2023-05-16T01:51:50;27.08;;;10.25;;
66559;SDS011;53413;49.878;8.142;2023-05-16T01:54:19;26.63;;;10.30;;
66559;SDS011;53413;49.878;8.142;2023-05-16T01:56:50;26.02;;;10.35;;
66559;SDS011;53413;49.878;8.142;2023-05-16T01:59:18;30.15;;;10.82;;
66559;SDS011;53413;49.878;8.142;2023-05-16T02:01:46;31.30;;;11.03;;
66559;SDS011;53413;49.878;8.142;2023-05-16T02:04:11;30.52;;;10.70;;
66559;SDS011;53413;49.878;8.142;2023-05-16T02:06:39;28.70;;;10.80;;
66559;SDS011;53413;49.878;8.142;2023-05-16T02:09:04;27.40;;;10.63;;
66559;SDS011;53413;49.878;8.142;2023-05-16T02:11:30;26.87;;;9.93;;
66559;SDS011;53413;49.878;8.142;2023-05-16T02:13:55;31.10;;;10.80;;
66559;SDS011;53413;49.878;8.142;2023-05-16T02:16:21;29.27;;;10.67;;
66559;SDS011;53413;49.878;8.142;2023-05-16T02:18:46;31.38;;;11.50;;
66559;SDS011;53413;49.878;8.142;2023-05-16T02:21:12;32.77;;;11.03;;
66559;SDS011;53413;49.878;8.142;2023-05-16T02:23:37;36.53;;;11.45;;
66559;SDS011;53413;49.878;8.142;2023-05-16T02:26:03;30.17;;;10.80;;
66559;SDS011;53413;49.878;8.142;2023-05-16T02:28:28;34.30;;;11.23;;
66559;SDS011;53413;49.878;8.142;2023-05-16T02:30:57;31.30;;;11.33;;
66559;SDS011;53413;49.878;8.142;2023-05-16T02:33:24;34.85;;;11.93;;
66559;SDS011;53413;49.878;8.142;2023-05-16T02:35:51;36.05;;;11.85;;
66559;SDS011;53413;49.878;8.142;2023-05-16T02:38:16;34.63;;;11.50;;
66559;SDS011;53413;49.878;8.142;2023-05-16T02:40:41;35.77;;;11.50;;
66559;SDS011;53413;49.878;8.142;2023-05-16T02:43:07;33.60;;;11.47;;
66559;SDS011;53413;49.878;8.142;2023-05-16T02:45:32;31.25;;;11.02;;
66559;SDS011;53413;49.878;8.142;2023-05-16T02:47:58;33.33;;;11.40;;
66559;SDS011;53413;49.878;8.142;2023-05-16T02:50:23;33.90;;;11.87;;
66559;SDS011;53413;49.878;8.142;2023-05-16T02:52:48;32.33;;;11.93;;
66559;SDS011;53413;49.878;8.142;2023-05-16T02:55:14;31.40;;;10.77;;
66559;SDS011;53413;49.878;8.142;2023-05-16T02:57:40;29.13;;;10.50;;
66559;SDS011;53413;49.878;8.142;2023-05-16T03:00:05;31.87;;;10.60;;
66559;SDS011;53413;49.878;8.142;2023-05-16T03:02:31;29.20;;;10.65;;
66559;SDS011;53413;49.878;8.142;2023-05-16T03:04:57;27.87;;;10.17;;
66559;SDS011;53413;49.878;8.142;2023-05-16T03:07:22;27.80;;;10.23;;
66559;SDS011;53413;49.878;8.142;2023-05-16T03:09:47;31.10;;;10.80;;
66559;SDS011;53413;49.878;8.142;2023-05-16T03:12:13;28.27;;;10.30;;
66559;SDS011;53413;49.878;8.142;2023-05-16T03:14:38;25.37;;;9.60;;
66559;SDS011;53413;49.878;8.142;2023-05-16T03:17:03;27.40;;;9.77;;
66559;SDS011;53413;49.878;8.142;2023-05-16T03:19:29;25.60;;;9.43;;
66559;SDS011;53413;49.878;8.142;2023-05-16T03:21:54;26.73;;;8.63;;
66559;SDS011;53413;49.878;8.142;2023-05-16T03:24:20;22.85;;;8.50;;
66559;SDS011;53413;49.878;8.142;2023-05-16T03:26:46;19.13;;;7.60;;
66559;SDS011;53413;49.878;8.142;2023-05-16T03:29:12;18.17;;;7.18;;
66559;SDS011;53413;49.878;8.142;2023-05-16T03:31:37;16.93;;;6.50;;
66559;SDS011;53413;49.878;8.142;2023-05-16T03:34:03;15.17;;;6.07;;
66559;SDS011;53413;49.878;8.142;2023-05-16T03:36:28;14.50;;;5.40;;
66559;SDS011;53413;49.878;8.142;2023-05-16T03:38:54;12.52;;;4.90;;
66559;SDS011;53413;49.878;8.142;2023-05-16T03:41:19;11.43;;;4.83;;
66559;SDS011;53413;49.878;8.142;2023-05-16T03:43:46;12.82;;;4.78;;
66559;SDS011;53413;49.878;8.142;2023-05-16T03:46:11;11.97;;;4.03;;
66559;SDS011;53413;49.878;8.142;2023-05-16T03:48:36;10.80;;;4.43;;
66559;SDS011;53413;49.878;8.142;2023-05-16T03:51:02;11.40;;;4.37;;
66559;SDS011;53413;49.878;8.142;2023-05-16T03:53:27;9.98;;;3.90;;
66559;SDS011;53413;49.878;8.142;2023-05-16T03:55:52;9.85;;;3.90;;
66559;SDS011;53413;49.878;8.142;2023-05-16T03:58:18;9.37;;;3.60;;
66559;SDS011;53413;49.878;8.142;2023-05-16T04:00:43;9.30;;;3.40;;
66559;SDS011;53413;49.878;8.142;2023-05-16T04:03:10;6.85;;;2.90;;
66559;SDS011;53413;49.878;8.142;2023-05-16T04:05:36;7.87;;;2.83;;
66559;SDS011;53413;49.878;8.142;2023-05-16T04:08:01;7.37;;;2.87;;
66559;SDS011;53413;49.878;8.142;2023-05-16T04:10:26;6.20;;;2.80;;
66559;SDS011;53413;49.878;8.142;2023-05-16T04:12:52;7.43;;;2.60;;
66559;SDS011;53413;49.878;8.142;2023-05-16T04:15:17;7.20;;;2.20;;
66559;SDS011;53413;49.878;8.142;2023-05-16T04:17:43;6.70;;;2.20;;
66559;SDS011;53413;49.878;8.142;2023-05-16T04:20:08;5.90;;;2.20;;
66559;SDS011;53413;49.878;8.142;2023-05-16T04:22:34;4.75;;;1.80;;
66559;SDS011;53413;49.878;8.142;2023-05-16T04:24:59;4.00;;;1.60;;
66559;SDS011;53413;49.878;8.142;2023-05-16T04:27:25;4.27;;;1.50;;
66559;SDS011;53413;49.878;8.142;2023-05-16T04:29:50;4.85;;;1.50;;
66559;SDS011;53413;49.878;8.142;2023-05-16T04:32:16;3.97;;;1.42;;
66559;SDS011;53413;49.878;8.142;2023-05-16T04:34:42;4.28;;;1.42;;
66559;SDS011;53413;49.878;8.142;2023-05-16T04:37:09;3.30;;;1.15;;
66559;SDS011;53413;49.878;8.142;2023-05-16T04:39:45;3.38;;;1.23;;
66559;SDS011;53413;49.878;8.142;2023-05-16T04:42:24;3.77;;;1.30;;
66559;SDS011;53413;49.878;8.142;2023-05-16T04:44:49;3.90;;;1.30;;
66559;SDS011;53413;49.878;8.142;2023-05-16T04:47:14;3.67;;;1.33;;
66559;SDS011;53413;49.878;8.142;2023-05-16T04:49:40;4.00;;;1.60;;
66559;SDS011;53413;49.878;8.142;2023-05-16T04:52:05;4.27;;;1.43;;
66559;SDS011;53413;49.878;8.142;2023-05-16T04:54:32;3.30;;;1.15;;
66559;SDS011;53413;49.878;8.142;2023-05-16T04:56:58;5.10;;;1.30;;
66559;SDS011;53413;49.878;8.142;2023-05-16T04:59:23;3.05;;;1.00;;
66559;SDS011;53413;49.878;8.142;2023-05-16T05:01:49;3.25;;;1.10;;
66559;SDS011;53413;49.878;8.142;2023-05-16T05:04:14;3.27;;;1.10;;
66559;SDS011;53413;49.878;8.142;2023-05-16T05:06:41;2.95;;;1.02;;
66559;SDS011;53413;49.878;8.142;2023-05-16T05:09:07;3.40;;;1.00;;
66559;SDS011;53413;49.878;8.142;2023-05-16T05:11:33;3.03;;;1.10;;
66559;SDS011;53413;49.878;8.142;2023-05-16T05:13:59;4.00;;;1.40;;
66559;SDS011;53413;49.878;8.142;2023-05-16T05:16:25;2.85;;;0.98;;
66559;SDS011;53413;49.878;8.142;2023-05-16T05:18:50;3.47;;;1.10;;
66559;SDS011;53413;49.878;8.142;2023-05-16T05:21:15;2.80;;;0.83;;
66559;SDS011;53413;49.878;8.142;2023-05-16T05:23:41;2.77;;;0.90;;
66559;SDS011;53413;49.878;8.142;2023-05-16T05:26:06;3.08;;;0.98;;
66559;SDS011;53413;49.878;8.142;2023-05-16T05:28:32;3.50;;;1.00;;
66559;SDS011;53413;49.878;8.142;2023-05-16T05:30:57;3.13;;;0.90;;
66559;SDS011;53413;49.878;8.142;2023-05-16T05:33:26;2.88;;;0.80;;
66559;SDS011;53413;49.878;8.142;2023-05-16T05:35:54;4.38;;;0.85;;
66559;SDS011;53413;49.878;8.142;2023-05-16T05:38:20;2.60;;;0.90;;
66559;SDS011;53413;49.878;8.142;2023-05-16T05:40:45;2.33;;;0.70;;
66559;SDS011;53413;49.878;8.142;2023-05-16T05:43:11;2.65;;;0.70;;
66559;SDS011;53413;49.878;8.142;2023-05-16T05:45:36;2.55;;;0.73;;
66559;SDS011;53413;49.878;8.142;2023-05-16T05:48:02;2.33;;;0.60;;
66559;SDS011;53413;49.878;8.142;2023-05-16T05:50:27;2.27;;;0.60;;
66559;SDS011;53413;49.878;8.142;2023-05-16T05:52:53;2.47;;;0.70;;
66559;SDS011;53413;49.878;8.142;2023-05-16T05:55:19;3.50;;;0.70;;
66559;SDS011;53413;49.878;8.142;2023-05-16T05:57:44;2.80;;;0.70;;
66559;SDS011;53413;49.878;8.142;2023-05-16T06:00:10;3.23;;;0.80;;
66559;SDS011;53413;49.878;8.142;2023-05-16T06:02:36;2.60;;;0.80;;
66559;SDS011;53413;49.878;8.142;2023-05-16T06:05:01;2.38;;;0.73;;
66559;SDS011;53413;49.878;8.142;2023-05-16T06:07:27;2.90;;;0.67;;
66559;SDS011;53413;49.878;8.142;2023-05-16T06:09:52;2.80;;;0.80;;
66559;SDS011;53413;49.878;8.142;2023-05-16T06:12:17;4.57;;;1.00;;
66559;SDS011;53413;49.878;8.142;2023-05-16T06:14:43;2.50;;;0.80;;
66559;SDS011;53413;49.878;8.142;2023-05-16T06:17:08;2.58;;;0.77;;
66559;SDS011;53413;49.878;8.142;2023-05-16T06:19:33;2.40;;;0.70;;
66559;SDS011;53413;49.878;8.142;2023-05-16T06:21:59;3.77;;;0.90;;
66559;SDS011;53413;49.878;8.142;2023-05-16T06:24:24;2.67;;;0.83;;
66559;SDS011;53413;49.878;8.142;2023-05-16T06:26:50;2.57;;;0.83;;
66559;SDS011;53413;49.878;8.142;2023-05-16T06:29:16;2.92;;;0.93;;
66559;SDS011;53413;49.878;8.142;2023-05-16T06:31:41;2.97;;;0.90;;
66559;SDS011;53413;49.878;8.142;2023-05-16T06:34:07;2.65;;;0.90;;
66559;SDS011;53413;49.878;8.142;2023-05-16T06:36:33;2.47;;;0.80;;
66559;SDS011;53413;49.878;8.142;2023-05-16T06:38:58;3.33;;;1.00;;
66559;SDS011;53413;49.878;8.142;2023-05-16T06:41:23;2.70;;;0.80;;
66559;SDS011;53413;49.878;8.142;2023-05-16T06:43:50;2.63;;;0.90;;
66559;SDS011;53413;49.878;8.142;2023-05-16T06:46:16;2.90;;;0.80;;
66559;SDS011;53413;49.878;8.142;2023-05-16T06:48:41;2.70;;;0.90;;
66559;SDS011;53413;49.878;8.142;2023-05-16T06:51:06;2.70;;;0.90;;
66559;SDS011;53413;49.878;8.142;2023-05-16T06:53:32;2.70;;;0.80;;
66559;SDS011;53413;49.878;8.142;2023-05-16T06:55:57;2.70;;;0.70;;
66559;SDS011;53413;49.878;8.142;2023-05-16T06:58:22;2.20;;;0.60;;
66559;SDS011;53413;49.878;8.142;2023-05-16T07:00:48;2.03;;;0.60;;
66559;SDS011;53413;49.878;8.142;2023-05-16T07:03:14;3.17;;;0.70;;
66559;SDS011;53413;49.878;8.142;2023-05-16T07:05:39;2.65;;;0.70;;
66559;SDS011;53413;49.878;8.142;2023-05-16T07:08:07;2.17;;;0.50;;
66559;SDS011;53413;49.878;8.142;2023-05-16T07:10:33;2.67;;;0.60;;
66559;SDS011;53413;49.878;8.142;2023-05-16T07:12:59;2.27;;;0.70;;
66559;SDS011;53413;49.878;8.142;2023-05-16T07:15:25;2.08;;;0.60;;
66559;SDS011;53413;49.878;8.142;2023-05-16T07:17:50;2.30;;;0.60;;
66559;SDS011;53413;49.878;8.142;2023-05-16T07:20:16;2.17;;;0.70;;
66559;SDS011;53413;49.878;8.142;2023-05-16T07:22:41;1.97;;;0.50;;
66559;SDS011;53413;49.878;8.142;2023-05-16T07:25:07;1.90;;;0.50;;
66559;SDS011;53413;49.878;8.142;2023-05-16T07:27:36;2.40;;;0.60;;
66559;SDS011;53413;49.878;8.142;2023-05-16T07:30:09;2.85;;;0.57;;
66559;SDS011;53413;49.878;8.142;2023-05-16T07:32:35;1.90;;;0.50;;
66559;SDS011;53413;49.878;8.142;2023-05-16T07:35:02;1.75;;;0.50;;
66559;SDS011;53413;49.878;8.142;2023-05-16T07:37:28;2.20;;;0.50;;
66559;SDS011;53413;49.878;8.142;2023-05-16T07:39:54;1.97;;;0.50;;
66559;SDS011;53413;49.878;8.142;2023-05-16T07:42:19;1.92;;;0.50;;
66559;SDS011;53413;49.878;8.142;2023-05-16T07:44:45;2.23;;;0.60;;
66559;SDS011;53413;49.878;8.142;2023-05-16T07:47:11;1.95;;;0.50;;
66559;SDS011;53413;49.878;8.142;2023-05-16T07:49:37;2.07;;;0.50;;
66559;SDS011;53413;49.878;8.142;2023-05-16T07:52:02;2.13;;;0.50;;
66559;SDS011;53413;49.878;8.142;2023-05-16T07:54:28;2.33;;;0.50;;
66559;SDS011;53413;49.878;8.142;2023-05-16T07:56:53;1.65;;;0.40;;
66559;SDS011;53413;49.878;8.142;2023-05-16T07:59:19;2.05;;;0.40;;
66559;SDS011;53413;49.878;8.142;2023-05-16T08:01:44;2.83;;;0.60;;
66559;SDS011;53413;49.878;8.142;2023-05-16T08:04:10;2.92;;;0.70;;
66559;SDS011;53413;49.878;8.142;2023-05-16T08:06:35;1.90;;;0.50;;
66559;SDS011;53413;49.878;8.142;2023-05-16T08:09:01;2.60;;;0.50;;
66559;SDS011;53413;49.878;8.142;2023-05-16T08:11:26;2.23;;;0.60;;
66559;SDS011;53413;49.878;8.142;2023-05-16T08:13:52;1.90;;;0.50;;
66559;SDS011;53413;49.878;8.142;2023-05-16T08:16:17;2.40;;;0.60;;
66559;SDS011;53413;49.878;8.142;2023-05-16T08:18:43;2.40;;;0.70;;
66559;SDS011;53413;49.878;8.142;2023-05-16T08:21:08;2.10;;;0.60;;
66559;SDS011;53413;49.878;8.142;2023-05-16T08:23:33;1.80;;;0.50;;
66559;SDS011;53413;49.878;8.142;2023-05-16T08:26:00;2.20;;;0.55;;
66559;SDS011;53413;49.878;8.142;2023-05-16T08:28:26;2.53;;;0.60;;
66559;SDS011;53413;49.878;8.142;2023-05-16T08:30:51;2.00;;;0.50;;
66559;SDS011;53413;49.878;8.142;2023-05-16T08:33:16;2.67;;;0.53;;
66559;SDS011;53413;49.878;8.142;2023-05-16T08:35:42;3.03;;;0.60;;
66559;SDS011;53413;49.878;8.142;2023-05-16T08:38:08;2.33;;;0.60;;
66559;SDS011;53413;49.878;8.142;2023-05-16T08:40:33;2.55;;;0.50;;
66559;SDS011;53413;49.878;8.142;2023-05-16T08:42:59;2.13;;;0.60;;
66559;SDS011;53413;49.878;8.142;2023-05-16T08:45:25;2.08;;;0.60;;
66559;SDS011;53413;49.878;8.142;2023-05-16T08:47:51;2.37;;;0.60;;
66559;SDS011;53413;49.878;8.142;2023-05-16T08:50:22;2.30;;;0.60;;
66559;SDS011;53413;49.878;8.142;2023-05-16T08:52:50;2.57;;;0.67;;
66559;SDS011;53413;49.878;8.142;2023-05-16T08:55:18;3.63;;;1.00;;
66559;SDS011;53413;49.878;8.142;2023-05-16T08:57:44;3.47;;;0.80;;
66559;SDS011;53413;49.878;8.142;2023-05-16T09:00:10;3.97;;;1.00;;
66559;SDS011;53413;49.878;8.142;2023-05-16T09:02:42;2.50;;;0.80;;
66559;SDS011;53413;49.878;8.142;2023-05-16T09:05:11;2.80;;;0.82;;
66559;SDS011;53413;49.878;8.142;2023-05-16T09:07:38;3.15;;;0.80;;
66559;SDS011;53413;49.878;8.142;2023-05-16T09:10:05;3.95;;;0.90;;
66559;SDS011;53413;49.878;8.142;2023-05-16T09:12:31;3.90;;;0.90;;
66559;SDS011;53413;49.878;8.142;2023-05-16T09:14:57;3.73;;;1.00;;
66559;SDS011;53413;49.878;8.142;2023-05-16T09:17:26;4.25;;;1.10;;
66559;SDS011;53413;49.878;8.142;2023-05-16T09:19:59;3.90;;;1.20;;
66559;SDS011;53413;49.878;8.142;2023-05-16T09:22:32;6.15;;;1.20;;
66559;SDS011;53413;49.878;8.142;2023-05-16T09:24:57;4.93;;;1.30;;
66559;SDS011;53413;49.878;8.142;2023-05-16T09:27:23;4.15;;;1.13;;
66559;SDS011;53413;49.878;8.142;2023-05-16T09:29:49;4.87;;;1.20;;
66559;SDS011;53413;49.878;8.142;2023-05-16T09:32:15;3.40;;;1.30;;
66559;SDS011;53413;49.878;8.142;2023-05-16T09:34:46;4.00;;;1.30;;
66559;SDS011;53413;49.878;8.142;2023-05-16T09:37:13;4.85;;;1.42;;
66559;SDS011;53413;49.878;8.142;2023-05-16T09:39:40;3.00;;;1.10;;
66559;SDS011;53413;49.878;8.142;2023-05-16T09:42:11;3.53;;;1.20;;
66559;SDS011;53413;49.878;8.142;2023-05-16T09:44:41;4.40;;;1.33;;
66559;SDS011;53413;49.878;8.142;2023-05-16T09:47:13;4.55;;;1.55;;
66559;SDS011;53413;49.878;8.142;2023-05-16T09:49:40;5.10;;;1.60;;
66559;SDS011;53413;49.878;8.142;2023-05-16T09:52:06;5.90;;;1.60;;
66559;SDS011;53413;49.878;8.142;2023-05-16T09:54:32;4.73;;;1.90;;
66559;SDS011;53413;49.878;8.142;2023-05-16T09:56:58;7.22;;;1.90;;
66559;SDS011;53413;49.878;8.142;2023-05-16T09:59:24;6.80;;;1.80;;
66559;SDS011;53413;49.878;8.142;2023-05-16T10:01:52;6.03;;;2.00;;
66559;SDS011;53413;49.878;8.142;2023-05-16T10:04:18;5.30;;;1.90;;
66559;SDS011;53413;49.878;8.142;2023-05-16T10:06:44;5.68;;;1.92;;
66559;SDS011;53413;49.878;8.142;2023-05-16T10:09:10;5.05;;;1.63;;
66559;SDS011;53413;49.878;8.142;2023-05-16T10:11:40;7.57;;;1.90;;
66559;SDS011;53413;49.878;8.142;2023-05-16T10:14:08;5.63;;;1.73;;
66559;SDS011;53413;49.878;8.142;2023-05-16T10:16:34;7.05;;;1.70;;
66559;SDS011;53413;49.878;8.142;2023-05-16T10:19:01;5.85;;;1.85;;
66559;SDS011;53413;49.878;8.142;2023-05-16T10:21:27;6.90;;;1.80;;
66559;SDS011;53413;49.878;8.142;2023-05-16T10:23:55;7.40;;;1.70;;
66559;SDS011;53413;49.878;8.142;2023-05-16T10:26:22;4.93;;;1.40;;
66559;SDS011;53413;49.878;8.142;2023-05-16T10:28:50;5.97;;;1.52;;
66559;SDS011;53413;49.878;8.142;2023-05-16T10:31:16;6.25;;;1.50;;
66559;SDS011;53413;49.878;8.142;2023-05-16T10:33:42;6.73;;;1.70;;
66559;SDS011;53413;49.878;8.142;2023-05-16T10:36:08;5.82;;;1.70;;
66559;SDS011;53413;49.878;8.142;2023-05-16T10:38:37;5.40;;;1.50;;
66559;SDS011;53413;49.878;8.142;2023-05-16T10:41:04;8.55;;;1.80;;
66559;SDS011;53413;49.878;8.142;2023-05-16T10:43:31;7.07;;;1.53;;
66559;SDS011;53413;49.878;8.142;2023-05-16T10:46:07;5.65;;;1.40;;
66559;SDS011;53413;49.878;8.142;2023-05-16T10:48:36;7.97;;;1.80;;
66559;SDS011;53413;49.878;8.142;2023-05-16T10:51:03;7.32;;;1.45;;
66559;SDS011;53413;49.878;8.142;2023-05-16T10:53:50;6.18;;;1.45;;
66559;SDS011;53413;49.878;8.142;2023-05-16T10:56:21;4.77;;;1.70;;
66559;SDS011;53413;49.878;8.142;2023-05-16T10:58:51;6.75;;;1.55;;
66559;SDS011;53413;49.878;8.142;2023-05-16T11:06:21;5.82;;;1.50;;
66559;SDS011;53413;49.878;8.142;2023-05-16T11:14:22;6.90;;;1.52;;
66559;SDS011;53413;49.878;8.142;2023-05-16T11:24:31;7.72;;;1.70;;
66559;SDS011;53413;49.878;8.142;2023-05-16T11:26:59;6.25;;;1.60;;
66559;SDS011;53413;49.878;8.142;2023-05-16T11:29:28;5.63;;;1.50;;
66559;SDS011;53413;49.878;8.142;2023-05-16T11:31:57;5.00;;;1.20;;
66559;SDS011;53413;49.878;8.142;2023-05-16T11:34:28;5.80;;;1.47;;
66559;SDS011;53413;49.878;8.142;2023-05-16T11:36:54;7.25;;;1.75;;
66559;SDS011;53413;49.878;8.142;2023-05-16T11:39:20;6.32;;;1.50;;
66559;SDS011;53413;49.878;8.142;2023-05-16T11:41:46;5.40;;;1.40;;
66559;SDS011;53413;49.878;8.142;2023-05-16T11:44:12;5.03;;;1.47;;
66559;SDS011;53413;49.878;8.142;2023-05-16T11:46:38;5.37;;;1.50;;
66559;SDS011;53413;49.878;8.142;2023-05-16T11:49:10;4.72;;;1.20;;
66559;SDS011;53413;49.878;8.142;2023-05-16T11:51:38;7.70;;;1.60;;
66559;SDS011;53413;49.878;8.142;2023-05-16T11:54:05;7.05;;;1.63;;
66559;SDS011;53413;49.878;8.142;2023-05-16T11:56:32;5.60;;;1.40;;
66559;SDS011;53413;49.878;8.142;2023-05-16T11:58:59;6.47;;;1.60;;
66559;SDS011;53413;49.878;8.142;2023-05-16T12:01:30;6.28;;;1.40;;
66559;SDS011;53413;49.878;8.142;2023-05-16T12:03:57;5.15;;;1.40;;
66559;SDS011;53413;49.878;8.142;2023-05-16T12:06:23;6.93;;;1.45;;
66559;SDS011;53413;49.878;8.142;2023-05-16T12:08:49;5.70;;;1.40;;
66559;SDS011;53413;49.878;8.142;2023-05-16T12:11:15;5.85;;;1.23;;
66559;SDS011;53413;49.878;8.142;2023-05-16T12:13:41;7.20;;;1.60;;
66559;SDS011;53413;49.878;8.142;2023-05-16T12:16:06;6.07;;;1.48;;
66559;SDS011;53413;49.878;8.142;2023-05-16T12:18:32;4.33;;;1.13;;
66559;SDS011;53413;49.878;8.142;2023-05-16T12:20:58;4.80;;;1.20;;
66559;SDS011;53413;49.878;8.142;2023-05-16T12:23:23;5.00;;;1.20;;
66559;SDS011;53413;49.878;8.142;2023-05-16T12:25:50;5.40;;;1.20;;
66559;SDS011;53413;49.878;8.142;2023-05-16T12:28:19;4.60;;;1.00;;
66559;SDS011;53413;49.878;8.142;2023-05-16T12:30:45;6.63;;;1.15;;
66559;SDS011;53413;49.878;8.142;2023-05-16T12:33:12;5.57;;;1.10;;
66559;SDS011;53413;49.878;8.142;2023-05-16T12:35:40;4.03;;;1.10;;
66559;SDS011;53413;49.878;8.142;2023-05-16T12:38:08;5.93;;;1.30;;
66559;SDS011;53413;49.878;8.142;2023-05-16T12:40:35;6.38;;;1.15;;
66559;SDS011;53413;49.878;8.142;2023-05-16T12:43:01;3.60;;;1.00;;
66559;SDS011;53413;49.878;8.142;2023-05-16T12:45:27;5.90;;;1.30;;
66559;SDS011;53413;49.878;8.142;2023-05-16T12:47:52;5.22;;;1.20;;
66559;SDS011;53413;49.878;8.142;2023-05-16T12:50:18;6.83;;;1.20;;
66559;SDS011;53413;49.878;8.142;2023-05-16T12:52:50;4.97;;;1.20;;
66559;SDS011;53413;49.878;8.142;2023-05-16T12:55:16;5.70;;;1.15;;
66559;SDS011;53413;49.878;8.142;2023-05-16T12:57:42;4.55;;;1.15;;
66559;SDS011;53413;49.878;8.142;2023-05-16T13:00:10;6.15;;;1.25;;
66559;SDS011;53413;49.878;8.142;2023-05-16T13:02:36;4.18;;;1.30;;
66559;SDS011;53413;49.878;8.142;2023-05-16T13:05:02;7.47;;;1.30;;
66559;SDS011;53413;49.878;8.142;2023-05-16T13:07:28;8.00;;;1.60;;
66559;SDS011;53413;49.878;8.142;2023-05-16T13:09:54;3.63;;;1.30;;
66559;SDS011;53413;49.878;8.142;2023-05-16T13:12:20;5.13;;;1.30;;
66559;SDS011;53413;49.878;8.142;2023-05-16T13:14:46;4.18;;;1.08;;
66559;SDS011;53413;49.878;8.142;2023-05-16T13:17:11;4.60;;;1.30;;
66559;SDS011;53413;49.878;8.142;2023-05-16T13:19:37;4.87;;;1.23;;
66559;SDS011;53413;49.878;8.142;2023-05-16T13:22:02;3.70;;;1.20;;
66559;SDS011;53413;49.878;8.142;2023-05-16T13:24:29;5.43;;;1.30;;
66559;SDS011;53413;49.878;8.142;2023-05-16T13:26:54;5.63;;;1.47;;
66559;SDS011;53413;49.878;8.142;2023-05-16T13:29:20;5.60;;;1.30;;
66559;SDS011;53413;49.878;8.142;2023-05-16T13:31:45;5.22;;;1.35;;
66559;SDS011;53413;49.878;8.142;2023-05-16T13:34:10;5.03;;;1.37;;
66559;SDS011;53413;49.878;8.142;2023-05-16T13:36:36;5.03;;;1.30;;
66559;SDS011;53413;49.878;8.142;2023-05-16T13:39:01;4.40;;;1.40;;
66559;SDS011;53413;49.878;8.142;2023-05-16T13:41:26;4.10;;;1.07;;
66559;SDS011;53413;49.878;8.142;2023-05-16T13:43:52;4.43;;;1.37;;
66559;SDS011;53413;49.878;8.142;2023-05-16T13:46:17;5.00;;;1.20;;
66559;SDS011;53413;49.878;8.142;2023-05-16T13:48:43;5.07;;;1.50;;
66559;SDS011;53413;49.878;8.142;2023-05-16T13:51:08;5.33;;;1.33;;
66559;SDS011;53413;49.878;8.142;2023-05-16T13:53:35;5.93;;;1.40;;
66559;SDS011;53413;49.878;8.142;2023-05-16T13:56:00;5.00;;;1.20;;
66559;SDS011;53413;49.878;8.142;2023-05-16T13:58:25;6.23;;;1.33;;
66559;SDS011;53413;49.878;8.142;2023-05-16T14:00:51;6.60;;;1.50;;
66559;SDS011;53413;49.878;8.142;2023-05-16T14:03:17;3.67;;;1.30;;
66559;SDS011;53413;49.878;8.142;2023-05-16T14:05:42;4.33;;;1.30;;
66559;SDS011;53413;49.878;8.142;2023-05-16T14:08:07;4.10;;;1.30;;
66559;SDS011;53413;49.878;8.142;2023-05-16T14:10:33;5.20;;;1.50;;
66559;SDS011;53413;49.878;8.142;2023-05-16T14:12:58;4.60;;;1.20;;
66559;SDS011;53413;49.878;8.142;2023-05-16T14:15:23;4.83;;;1.50;;
66559;SDS011;53413;49.878;8.142;2023-05-16T14:17:49;5.90;;;1.37;;
66559;SDS011;53413;49.878;8.142;2023-05-16T14:20:14;5.00;;;1.17;;
66559;SDS011;53413;49.878;8.142;2023-05-16T14:22:39;4.63;;;1.27;;
66559;SDS011;53413;49.878;8.142;2023-05-16T14:25:05;4.93;;;1.20;;
66559;SDS011;53413;49.878;8.142;2023-05-16T14:27:31;4.80;;;1.20;;
66559;SDS011;53413;49.878;8.142;2023-05-16T14:29:56;5.73;;;1.20;;
66559;SDS011;53413;49.878;8.142;2023-05-16T14:32:22;5.10;;;1.30;;
66559;SDS011;53413;49.878;8.142;2023-05-16T14:34:48;5.17;;;1.50;;
66559;SDS011;53413;49.878;8.142;2023-05-16T14:37:13;4.00;;;1.20;;
66559;SDS011;53413;49.878;8.142;2023-05-16T14:39:40;5.35;;;1.40;;
66559;SDS011;53413;49.878;8.142;2023-05-16T14:42:06;4.32;;;1.30;;
66559;SDS011;53413;49.878;8.142;2023-05-16T14:44:32;4.07;;;1.40;;
66559;SDS011;53413;49.878;8.142;2023-05-16T14:46:57;4.83;;;1.20;;
66559;SDS011;53413;49.878;8.142;2023-05-16T14:49:22;6.07;;;1.30;;
66559;SDS011;53413;49.878;8.142;2023-05-16T14:51:48;5.25;;;1.30;;
66559;SDS011;53413;49.878;8.142;2023-05-16T14:54:14;4.73;;;1.40;;
66559;SDS011;53413;49.878;8.142;2023-05-16T14:56:40;4.95;;;1.20;;
66559;SDS011;53413;49.878;8.142;2023-05-16T14:59:06;3.97;;;1.20;;
66559;SDS011;53413;49.878;8.142;2023-05-16T15:01:31;4.27;;;1.27;;
66559;SDS011;53413;49.878;8.142;2023-05-16T15:03:57;3.83;;;1.20;;
66559;SDS011;53413;49.878;8.142;2023-05-16T15:06:22;5.43;;;1.23;;
66559;SDS011;53413;49.878;8.142;2023-05-16T15:08:48;4.00;;;1.30;;
66559;SDS011;53413;49.878;8.142;2023-05-16T15:11:13;5.00;;;1.50;;